sensor_id;sensor_type;location;lat;lon;timestamp;P1;durP1;ratioP1;P2;durP2;ratioP2
35959;SDS011;22043;50.970;7.192;2022-09-28T00:03:43;13.05;;;5.40;;
35959;SDS011;22043;50.970;7.192;2022-09-28T00:06:11;10.02;;;5.53;;
35959;SDS011;22043;50.970;7.192;2022-09-28T00:08:38;7.32;;;5.07;;
35959;SDS011;22043;50.970;7.192;2022-09-28T00:11:04;8.65;;;4.55;;
35959;SDS011;22043;50.970;7.192;2022-09-28T00:13:31;8.00;;;4.53;;
35959;SDS011;22043;50.970;7.192;2022-09-28T00:16:00;7.57;;;4.18;;
35959;SDS011;22043;50.970;7.192;2022-09-28T00:18:28;8.60;;;5.00;;
35959;SDS011;22043;50.970;7.192;2022-09-28T00:23:28;8.52;;;5.25;;
35959;SDS011;22043;50.970;7.192;2022-09-28T00:25:54;7.05;;;4.50;;
35959;SDS011;22043;50.970;7.192;2022-09-28T00:28:20;8.07;;;4.60;;
35959;SDS011;22043;50.970;7.192;2022-09-28T00:30:45;8.43;;;4.85;;
35959;SDS011;22043;50.970;7.192;2022-09-28T00:33:11;7.78;;;5.40;;
35959;SDS011;22043;50.970;7.192;2022-09-28T00:35:36;7.32;;;4.93;;
35959;SDS011;22043;50.970;7.192;2022-09-28T00:38:02;8.25;;;5.10;;
35959;SDS011;22043;50.970;7.192;2022-09-28T00:40:28;10.85;;;5.00;;
35959;SDS011;22043;50.970;7.192;2022-09-28T00:42:54;9.38;;;5.00;;
35959;SDS011;22043;50.970;7.192;2022-09-28T00:45:20;9.95;;;5.45;;
35959;SDS011;22043;50.970;7.192;2022-09-28T00:47:50;8.18;;;5.75;;
35959;SDS011;22043;50.970;7.192;2022-09-28T00:58:16;8.45;;;4.43;;
35959;SDS011;22043;50.970;7.192;2022-09-28T01:00:53;5.43;;;3.22;;
35959;SDS011;22043;50.970;7.192;2022-09-28T01:03:22;6.82;;;3.17;;
35959;SDS011;22043;50.970;7.192;2022-09-28T01:05:49;7.53;;;3.55;;
35959;SDS011;22043;50.970;7.192;2022-09-28T01:08:17;5.05;;;2.70;;
35959;SDS011;22043;50.970;7.192;2022-09-28T01:10:45;6.25;;;2.78;;
35959;SDS011;22043;50.970;7.192;2022-09-28T01:13:15;4.65;;;2.03;;
35959;SDS011;22043;50.970;7.192;2022-09-28T01:15:48;5.88;;;2.50;;
35959;SDS011;22043;50.970;7.192;2022-09-28T01:18:34;4.28;;;2.28;;
35959;SDS011;22043;50.970;7.192;2022-09-28T01:21:28;4.72;;;2.10;;
35959;SDS011;22043;50.970;7.192;2022-09-28T01:26:40;3.83;;;1.90;;
35959;SDS011;22043;50.970;7.192;2022-09-28T01:29:29;5.00;;;2.05;;
35959;SDS011;22043;50.970;7.192;2022-09-28T01:31:59;3.72;;;1.90;;
35959;SDS011;22043;50.970;7.192;2022-09-28T01:34:50;4.88;;;2.45;;
35959;SDS011;22043;50.970;7.192;2022-09-28T01:37:34;5.22;;;2.00;;
35959;SDS011;22043;50.970;7.192;2022-09-28T01:40:07;3.85;;;1.92;;
35959;SDS011;22043;50.970;7.192;2022-09-28T01:42:34;4.45;;;2.13;;
35959;SDS011;22043;50.970;7.192;2022-09-28T01:45:04;3.05;;;1.90;;
35959;SDS011;22043;50.970;7.192;2022-09-28T01:47:35;4.72;;;2.70;;
35959;SDS011;22043;50.970;7.192;2022-09-28T01:50:05;8.60;;;3.13;;
35959;SDS011;22043;50.970;7.192;2022-09-28T01:52:42;4.72;;;3.00;;
35959;SDS011;22043;50.970;7.192;2022-09-28T01:55:24;6.00;;;3.55;;
35959;SDS011;22043;50.970;7.192;2022-09-28T01:57:54;5.72;;;3.13;;
35959;SDS011;22043;50.970;7.192;2022-09-28T02:00:20;4.97;;;3.33;;
35959;SDS011;22043;50.970;7.192;2022-09-28T02:03:09;5.80;;;3.35;;
35959;SDS011;22043;50.970;7.192;2022-09-28T02:05:52;6.03;;;3.30;;
35959;SDS011;22043;50.970;7.192;2022-09-28T02:08:25;5.15;;;3.58;;
35959;SDS011;22043;50.970;7.192;2022-09-28T02:11:14;4.45;;;3.00;;
35959;SDS011;22043;50.970;7.192;2022-09-28T02:13:43;6.65;;;3.70;;
35959;SDS011;22043;50.970;7.192;2022-09-28T02:16:36;6.07;;;3.45;;
35959;SDS011;22043;50.970;7.192;2022-09-28T02:19:18;10.73;;;3.80;;
35959;SDS011;22043;50.970;7.192;2022-09-28T02:24:36;9.05;;;3.65;;
35959;SDS011;22043;50.970;7.192;2022-09-28T02:27:26;7.63;;;3.42;;
35959;SDS011;22043;50.970;7.192;2022-09-28T02:30:03;5.35;;;3.60;;
35959;SDS011;22043;50.970;7.192;2022-09-28T02:32:29;5.65;;;2.83;;
35959;SDS011;22043;50.970;7.192;2022-09-28T02:34:59;5.95;;;3.20;;
35959;SDS011;22043;50.970;7.192;2022-09-28T02:37:25;5.47;;;3.22;;
35959;SDS011;22043;50.970;7.192;2022-09-28T02:39:51;5.10;;;3.00;;
35959;SDS011;22043;50.970;7.192;2022-09-28T02:42:27;7.97;;;3.60;;
35959;SDS011;22043;50.970;7.192;2022-09-28T02:47:51;6.38;;;3.72;;
35959;SDS011;22043;50.970;7.192;2022-09-28T03:06:45;7.50;;;3.92;;
35959;SDS011;22043;50.970;7.192;2022-09-28T03:09:22;8.27;;;3.65;;
35959;SDS011;22043;50.970;7.192;2022-09-28T03:11:57;8.05;;;3.97;;
35959;SDS011;22043;50.970;7.192;2022-09-28T03:14:28;8.57;;;4.45;;
35959;SDS011;22043;50.970;7.192;2022-09-28T03:16:56;9.50;;;5.53;;
35959;SDS011;22043;50.970;7.192;2022-09-28T03:19:23;6.45;;;3.92;;
35959;SDS011;22043;50.970;7.192;2022-09-28T03:21:53;8.13;;;3.85;;
35959;SDS011;22043;50.970;7.192;2022-09-28T03:24:19;6.18;;;3.92;;
35959;SDS011;22043;50.970;7.192;2022-09-28T03:26:45;7.95;;;4.10;;
35959;SDS011;22043;50.970;7.192;2022-09-28T03:29:12;7.43;;;4.60;;
35959;SDS011;22043;50.970;7.192;2022-09-28T03:31:38;8.40;;;4.45;;
35959;SDS011;22043;50.970;7.192;2022-09-28T03:34:03;7.47;;;4.80;;
35959;SDS011;22043;50.970;7.192;2022-09-28T03:36:30;7.90;;;5.20;;
35959;SDS011;22043;50.970;7.192;2022-09-28T03:38:56;9.52;;;5.28;;
35959;SDS011;22043;50.970;7.192;2022-09-28T03:41:23;7.97;;;4.60;;
35959;SDS011;22043;50.970;7.192;2022-09-28T03:43:51;7.45;;;4.80;;
35959;SDS011;22043;50.970;7.192;2022-09-28T03:46:18;10.93;;;5.70;;
35959;SDS011;22043;50.970;7.192;2022-09-28T03:48:48;8.27;;;4.70;;
35959;SDS011;22043;50.970;7.192;2022-09-28T03:51:13;9.57;;;5.25;;
35959;SDS011;22043;50.970;7.192;2022-09-28T03:53:39;9.25;;;5.32;;
35959;SDS011;22043;50.970;7.192;2022-09-28T03:56:06;8.30;;;5.07;;
35959;SDS011;22043;50.970;7.192;2022-09-28T03:58:36;9.77;;;5.55;;
35959;SDS011;22043;50.970;7.192;2022-09-28T04:01:03;10.50;;;6.63;;
35959;SDS011;22043;50.970;7.192;2022-09-28T04:03:34;8.63;;;5.57;;
35959;SDS011;22043;50.970;7.192;2022-09-28T04:05:59;11.38;;;6.47;;
35959;SDS011;22043;50.970;7.192;2022-09-28T04:08:26;10.10;;;6.72;;
35959;SDS011;22043;50.970;7.192;2022-09-28T04:10:55;10.65;;;6.45;;
35959;SDS011;22043;50.970;7.192;2022-09-28T04:13:25;10.23;;;6.63;;
35959;SDS011;22043;50.970;7.192;2022-09-28T04:15:52;14.63;;;8.10;;
35959;SDS011;22043;50.970;7.192;2022-09-28T04:18:20;12.10;;;8.30;;
35959;SDS011;22043;50.970;7.192;2022-09-28T04:21:12;11.80;;;7.68;;
35959;SDS011;22043;50.970;7.192;2022-09-28T04:23:45;11.13;;;7.68;;
35959;SDS011;22043;50.970;7.192;2022-09-28T04:26:16;14.93;;;9.30;;
35959;SDS011;22043;50.970;7.192;2022-09-28T04:28:44;14.23;;;9.50;;
35959;SDS011;22043;50.970;7.192;2022-09-28T04:31:29;11.75;;;8.45;;
35959;SDS011;22043;50.970;7.192;2022-09-28T04:34:01;12.95;;;8.50;;
35959;SDS011;22043;50.970;7.192;2022-09-28T04:36:26;16.48;;;9.95;;
35959;SDS011;22043;50.970;7.192;2022-09-28T04:38:52;15.20;;;9.80;;
35959;SDS011;22043;50.970;7.192;2022-09-28T04:41:19;14.63;;;8.52;;
35959;SDS011;22043;50.970;7.192;2022-09-28T04:43:49;14.90;;;9.75;;
35959;SDS011;22043;50.970;7.192;2022-09-28T04:46:15;14.43;;;9.52;;
35959;SDS011;22043;50.970;7.192;2022-09-28T04:48:48;14.32;;;8.38;;
35959;SDS011;22043;50.970;7.192;2022-09-28T04:51:32;15.80;;;9.75;;
35959;SDS011;22043;50.970;7.192;2022-09-28T04:53:57;13.85;;;8.32;;
35959;SDS011;22043;50.970;7.192;2022-09-28T04:56:23;15.43;;;8.77;;
35959;SDS011;22043;50.970;7.192;2022-09-28T04:58:49;12.82;;;8.32;;
35959;SDS011;22043;50.970;7.192;2022-09-28T05:01:16;14.05;;;8.70;;
35959;SDS011;22043;50.970;7.192;2022-09-28T05:04:09;13.88;;;9.57;;
35959;SDS011;22043;50.970;7.192;2022-09-28T05:07:13;13.30;;;9.38;;
35959;SDS011;22043;50.970;7.192;2022-09-28T05:09:39;17.10;;;10.25;;
35959;SDS011;22043;50.970;7.192;2022-09-28T05:12:05;15.07;;;9.50;;
35959;SDS011;22043;50.970;7.192;2022-09-28T05:14:32;16.00;;;9.87;;
35959;SDS011;22043;50.970;7.192;2022-09-28T05:16:58;16.65;;;10.02;;
35959;SDS011;22043;50.970;7.192;2022-09-28T05:19:23;15.48;;;9.32;;
35959;SDS011;22043;50.970;7.192;2022-09-28T05:21:50;17.75;;;10.88;;
35959;SDS011;22043;50.970;7.192;2022-09-28T05:24:16;19.90;;;10.85;;
35959;SDS011;22043;50.970;7.192;2022-09-28T05:26:45;15.57;;;10.25;;
35959;SDS011;22043;50.970;7.192;2022-09-28T05:29:12;17.15;;;11.48;;
35959;SDS011;22043;50.970;7.192;2022-09-28T05:32:00;15.20;;;11.07;;
35959;SDS011;22043;50.970;7.192;2022-09-28T05:34:33;19.33;;;10.90;;
35959;SDS011;22043;50.970;7.192;2022-09-28T05:36:59;14.82;;;11.20;;
35959;SDS011;22043;50.970;7.192;2022-09-28T05:39:25;15.45;;;10.70;;
35959;SDS011;22043;50.970;7.192;2022-09-28T05:41:50;17.40;;;11.07;;
35959;SDS011;22043;50.970;7.192;2022-09-28T05:44:16;15.77;;;10.15;;
35959;SDS011;22043;50.970;7.192;2022-09-28T05:46:42;15.00;;;9.95;;
35959;SDS011;22043;50.970;7.192;2022-09-28T05:49:09;17.08;;;10.85;;
35959;SDS011;22043;50.970;7.192;2022-09-28T05:51:35;14.75;;;9.93;;
35959;SDS011;22043;50.970;7.192;2022-09-28T05:54:01;19.25;;;10.77;;
35959;SDS011;22043;50.970;7.192;2022-09-28T05:56:31;15.73;;;10.52;;
35959;SDS011;22043;50.970;7.192;2022-09-28T05:58:57;14.02;;;9.50;;
35959;SDS011;22043;50.970;7.192;2022-09-28T06:03:51;13.15;;;9.55;;
35959;SDS011;22043;50.970;7.192;2022-09-28T06:06:18;15.40;;;9.23;;
35959;SDS011;22043;50.970;7.192;2022-09-28T06:08:44;15.05;;;9.20;;
35959;SDS011;22043;50.970;7.192;2022-09-28T06:11:31;13.18;;;8.07;;
35959;SDS011;22043;50.970;7.192;2022-09-28T06:13:59;14.00;;;8.35;;
35959;SDS011;22043;50.970;7.192;2022-09-28T06:16:28;13.98;;;9.20;;
35959;SDS011;22043;50.970;7.192;2022-09-28T06:18:53;11.70;;;8.07;;
35959;SDS011;22043;50.970;7.192;2022-09-28T06:21:46;11.40;;;7.22;;
35959;SDS011;22043;50.970;7.192;2022-09-28T06:24:12;12.10;;;8.27;;
35959;SDS011;22043;50.970;7.192;2022-09-28T06:26:38;13.65;;;8.05;;
35959;SDS011;22043;50.970;7.192;2022-09-28T06:29:05;15.02;;;8.65;;
35959;SDS011;22043;50.970;7.192;2022-09-28T06:31:30;15.88;;;8.57;;
35959;SDS011;22043;50.970;7.192;2022-09-28T06:33:56;13.63;;;8.82;;
35959;SDS011;22043;50.970;7.192;2022-09-28T06:36:23;16.57;;;12.07;;
35959;SDS011;22043;50.970;7.192;2022-09-28T06:38:49;12.70;;;9.10;;
35959;SDS011;22043;50.970;7.192;2022-09-28T06:41:15;15.40;;;9.15;;
35959;SDS011;22043;50.970;7.192;2022-09-28T06:43:43;14.63;;;9.32;;
35959;SDS011;22043;50.970;7.192;2022-09-28T06:46:28;13.18;;;8.45;;
35959;SDS011;22043;50.970;7.192;2022-09-28T06:49:24;10.50;;;7.57;;
35959;SDS011;22043;50.970;7.192;2022-09-28T06:52:11;12.60;;;7.32;;
35959;SDS011;22043;50.970;7.192;2022-09-28T06:55:12;12.68;;;9.10;;
35959;SDS011;22043;50.970;7.192;2022-09-28T06:57:42;15.32;;;7.57;;
35959;SDS011;22043;50.970;7.192;2022-09-28T07:00:08;11.93;;;7.15;;
35959;SDS011;22043;50.970;7.192;2022-09-28T07:02:35;12.18;;;6.82;;
35959;SDS011;22043;50.970;7.192;2022-09-28T07:05:15;12.43;;;7.28;;
35959;SDS011;22043;50.970;7.192;2022-09-28T07:07:55;9.38;;;6.28;;
35959;SDS011;22043;50.970;7.192;2022-09-28T07:11:00;17.40;;;6.20;;
35959;SDS011;22043;50.970;7.192;2022-09-28T07:13:50;13.35;;;7.95;;
35959;SDS011;22043;50.970;7.192;2022-09-28T07:16:17;13.43;;;8.35;;
35959;SDS011;22043;50.970;7.192;2022-09-28T07:18:44;9.57;;;6.57;;
35959;SDS011;22043;50.970;7.192;2022-09-28T07:21:09;10.65;;;6.80;;
35959;SDS011;22043;50.970;7.192;2022-09-28T07:23:36;9.48;;;6.40;;
35959;SDS011;22043;50.970;7.192;2022-09-28T07:26:20;8.52;;;5.90;;
35959;SDS011;22043;50.970;7.192;2022-09-28T07:29:00;11.15;;;6.55;;
35959;SDS011;22043;50.970;7.192;2022-09-28T07:31:39;10.98;;;6.55;;
35959;SDS011;22043;50.970;7.192;2022-09-28T07:34:30;13.25;;;9.10;;
35959;SDS011;22043;50.970;7.192;2022-09-28T07:37:03;13.57;;;7.50;;
35959;SDS011;22043;50.970;7.192;2022-09-28T07:39:29;10.77;;;5.97;;
35959;SDS011;22043;50.970;7.192;2022-09-28T07:41:55;14.00;;;6.78;;
35959;SDS011;22043;50.970;7.192;2022-09-28T07:44:21;8.23;;;5.93;;
35959;SDS011;22043;50.970;7.192;2022-09-28T07:46:50;14.20;;;6.40;;
35959;SDS011;22043;50.970;7.192;2022-09-28T07:49:22;12.88;;;7.57;;
35959;SDS011;22043;50.970;7.192;2022-09-28T07:51:55;10.35;;;5.88;;
35959;SDS011;22043;50.970;7.192;2022-09-28T07:54:26;16.35;;;9.52;;
35959;SDS011;22043;50.970;7.192;2022-09-28T08:00:09;11.20;;;5.43;;
35959;SDS011;22043;50.970;7.192;2022-09-28T08:02:44;11.88;;;5.72;;
35959;SDS011;22043;50.970;7.192;2022-09-28T08:05:16;16.73;;;7.95;;
35959;SDS011;22043;50.970;7.192;2022-09-28T08:07:42;10.80;;;5.57;;
35959;SDS011;22043;50.970;7.192;2022-09-28T08:10:08;11.05;;;5.18;;
35959;SDS011;22043;50.970;7.192;2022-09-28T08:12:55;8.98;;;5.32;;
35959;SDS011;22043;50.970;7.192;2022-09-28T08:16:00;8.10;;;5.38;;
35959;SDS011;22043;50.970;7.192;2022-09-28T08:18:35;7.63;;;4.07;;
35959;SDS011;22043;50.970;7.192;2022-09-28T08:21:03;12.27;;;4.90;;
35959;SDS011;22043;50.970;7.192;2022-09-28T08:23:48;18.10;;;8.20;;
35959;SDS011;22043;50.970;7.192;2022-09-28T08:26:14;8.85;;;4.57;;
35959;SDS011;22043;50.970;7.192;2022-09-28T08:28:41;8.70;;;5.38;;
35959;SDS011;22043;50.970;7.192;2022-09-28T08:31:40;8.48;;;5.10;;
35959;SDS011;22043;50.970;7.192;2022-09-28T08:34:22;11.85;;;5.47;;
35959;SDS011;22043;50.970;7.192;2022-09-28T08:37:07;8.20;;;4.82;;
35959;SDS011;22043;50.970;7.192;2022-09-28T08:39:51;6.97;;;4.47;;
35959;SDS011;22043;50.970;7.192;2022-09-28T08:42:41;9.02;;;5.47;;
35959;SDS011;22043;50.970;7.192;2022-09-28T08:45:24;7.10;;;4.13;;
35959;SDS011;22043;50.970;7.192;2022-09-28T08:48:08;6.93;;;3.85;;
35959;SDS011;22043;50.970;7.192;2022-09-28T08:51:37;9.65;;;3.95;;
35959;SDS011;22043;50.970;7.192;2022-09-28T08:54:47;7.60;;;4.60;;
35959;SDS011;22043;50.970;7.192;2022-09-28T08:57:29;7.88;;;3.90;;
35959;SDS011;22043;50.970;7.192;2022-09-28T09:00:30;9.52;;;6.22;;
35959;SDS011;22043;50.970;7.192;2022-09-28T09:03:04;7.93;;;4.25;;
35959;SDS011;22043;50.970;7.192;2022-09-28T09:05:41;8.60;;;4.00;;
35959;SDS011;22043;50.970;7.192;2022-09-28T09:11:25;8.30;;;4.43;;
35959;SDS011;22043;50.970;7.192;2022-09-28T09:17:14;6.78;;;4.25;;
35959;SDS011;22043;50.970;7.192;2022-09-28T09:22:58;8.68;;;5.22;;
35959;SDS011;22043;50.970;7.192;2022-09-28T09:25:47;8.80;;;4.63;;
35959;SDS011;22043;50.970;7.192;2022-09-28T09:37:26;10.35;;;5.63;;
35959;SDS011;22043;50.970;7.192;2022-09-28T09:46:40;8.05;;;4.35;;
35959;SDS011;22043;50.970;7.192;2022-09-28T09:54:59;13.48;;;4.55;;
35959;SDS011;22043;50.970;7.192;2022-09-28T10:00:29;8.45;;;4.13;;
35959;SDS011;22043;50.970;7.192;2022-09-28T10:03:20;12.52;;;4.82;;
35959;SDS011;22043;50.970;7.192;2022-09-28T10:06:02;10.32;;;4.75;;
35959;SDS011;22043;50.970;7.192;2022-09-28T10:08:36;10.85;;;4.93;;
35959;SDS011;22043;50.970;7.192;2022-09-28T10:11:16;10.48;;;5.30;;
35959;SDS011;22043;50.970;7.192;2022-09-28T10:13:53;13.57;;;8.18;;
35959;SDS011;22043;50.970;7.192;2022-09-28T10:16:42;9.85;;;5.28;;
35959;SDS011;22043;50.970;7.192;2022-09-28T10:19:17;7.68;;;3.95;;
35959;SDS011;22043;50.970;7.192;2022-09-28T10:22:15;8.55;;;4.28;;
35959;SDS011;22043;50.970;7.192;2022-09-28T10:24:45;6.10;;;3.92;;
35959;SDS011;22043;50.970;7.192;2022-09-28T10:27:22;7.82;;;4.25;;
35959;SDS011;22043;50.970;7.192;2022-09-28T10:29:59;11.27;;;4.35;;
35959;SDS011;22043;50.970;7.192;2022-09-28T10:32:48;9.38;;;5.30;;
35959;SDS011;22043;50.970;7.192;2022-09-28T10:43:39;13.77;;;5.85;;
35959;SDS011;22043;50.970;7.192;2022-09-28T10:46:33;12.27;;;3.78;;
35959;SDS011;22043;50.970;7.192;2022-09-28T10:49:05;12.52;;;4.35;;
35959;SDS011;22043;50.970;7.192;2022-09-28T10:51:48;9.93;;;3.92;;
35959;SDS011;22043;50.970;7.192;2022-09-28T10:54:26;8.27;;;2.15;;
35959;SDS011;22043;50.970;7.192;2022-09-28T10:56:56;8.93;;;2.35;;
35959;SDS011;22043;50.970;7.192;2022-09-28T10:59:40;8.82;;;3.58;;
35959;SDS011;22043;50.970;7.192;2022-09-28T11:02:25;6.80;;;2.80;;
35959;SDS011;22043;50.970;7.192;2022-09-28T11:04:57;4.78;;;2.05;;
35959;SDS011;22043;50.970;7.192;2022-09-28T11:07:33;8.32;;;3.63;;
35959;SDS011;22043;50.970;7.192;2022-09-28T11:10:21;4.60;;;1.80;;
35959;SDS011;22043;50.970;7.192;2022-09-28T11:13:00;6.85;;;2.53;;
35959;SDS011;22043;50.970;7.192;2022-09-28T11:15:28;4.10;;;1.65;;
35959;SDS011;22043;50.970;7.192;2022-09-28T11:20:50;6.45;;;1.40;;
35959;SDS011;22043;50.970;7.192;2022-09-28T11:23:20;4.88;;;2.75;;
35959;SDS011;22043;50.970;7.192;2022-09-28T11:25:57;12.47;;;5.77;;
35959;SDS011;22043;50.970;7.192;2022-09-28T11:28:36;6.10;;;2.45;;
35959;SDS011;22043;50.970;7.192;2022-09-28T11:31:11;4.45;;;1.95;;
35959;SDS011;22043;50.970;7.192;2022-09-28T11:33:50;4.60;;;2.08;;
35959;SDS011;22043;50.970;7.192;2022-09-28T11:39:40;5.40;;;2.72;;
35959;SDS011;22043;50.970;7.192;2022-09-28T11:42:31;19.70;;;9.88;;
35959;SDS011;22043;50.970;7.192;2022-09-28T11:48:02;4.97;;;1.30;;
35959;SDS011;22043;50.970;7.192;2022-09-28T11:50:55;7.22;;;1.77;;
35959;SDS011;22043;50.970;7.192;2022-09-28T11:53:33;4.80;;;1.30;;
35959;SDS011;22043;50.970;7.192;2022-09-28T11:56:31;2.50;;;0.90;;
35959;SDS011;22043;50.970;7.192;2022-09-28T12:01:42;3.63;;;1.05;;
35959;SDS011;22043;50.970;7.192;2022-09-28T12:04:37;7.40;;;1.45;;
35959;SDS011;22043;50.970;7.192;2022-09-28T12:07:15;3.95;;;2.17;;
35959;SDS011;22043;50.970;7.192;2022-09-28T12:15:22;9.27;;;5.40;;
35959;SDS011;22043;50.970;7.192;2022-09-28T12:17:55;8.63;;;4.95;;
35959;SDS011;22043;50.970;7.192;2022-09-28T12:20:44;14.73;;;9.40;;
35959;SDS011;22043;50.970;7.192;2022-09-28T12:23:14;10.38;;;6.07;;
35959;SDS011;22043;50.970;7.192;2022-09-28T12:26:03;8.85;;;2.60;;
35959;SDS011;22043;50.970;7.192;2022-09-28T12:28:41;6.10;;;3.20;;
35959;SDS011;22043;50.970;7.192;2022-09-28T12:33:44;4.88;;;2.75;;
35959;SDS011;22043;50.970;7.192;2022-09-28T12:39:08;3.75;;;1.50;;
35959;SDS011;22043;50.970;7.192;2022-09-28T12:44:39;4.35;;;1.80;;
35959;SDS011;22043;50.970;7.192;2022-09-28T12:47:22;2.95;;;1.67;;
35959;SDS011;22043;50.970;7.192;2022-09-28T12:50:17;3.17;;;1.60;;
35959;SDS011;22043;50.970;7.192;2022-09-28T13:04:05;4.75;;;2.05;;
35959;SDS011;22043;50.970;7.192;2022-09-28T13:06:46;4.90;;;2.22;;
35959;SDS011;22043;50.970;7.192;2022-09-28T13:17:58;3.30;;;1.55;;
35959;SDS011;22043;50.970;7.192;2022-09-28T13:23:38;2.78;;;1.27;;
35959;SDS011;22043;50.970;7.192;2022-09-28T13:26:27;3.47;;;1.20;;
35959;SDS011;22043;50.970;7.192;2022-09-28T13:28:59;3.75;;;1.52;;
35959;SDS011;22043;50.970;7.192;2022-09-28T13:31:29;3.20;;;0.90;;
35959;SDS011;22043;50.970;7.192;2022-09-28T13:33:58;4.40;;;0.90;;
35959;SDS011;22043;50.970;7.192;2022-09-28T13:38:59;1.98;;;0.90;;
35959;SDS011;22043;50.970;7.192;2022-09-28T13:41:32;2.60;;;0.95;;
35959;SDS011;22043;50.970;7.192;2022-09-28T13:49:21;8.05;;;2.47;;
35959;SDS011;22043;50.970;7.192;2022-09-28T13:52:01;9.85;;;5.32;;
35959;SDS011;22043;50.970;7.192;2022-09-28T13:54:55;6.32;;;2.45;;
35959;SDS011;22043;50.970;7.192;2022-09-28T13:57:56;5.97;;;2.33;;
35959;SDS011;22043;50.970;7.192;2022-09-28T14:00:41;7.93;;;3.65;;
35959;SDS011;22043;50.970;7.192;2022-09-28T14:09:06;1.33;;;0.65;;
35959;SDS011;22043;50.970;7.192;2022-09-28T14:16:30;4.85;;;1.67;;
35959;SDS011;22043;50.970;7.192;2022-09-28T14:18:59;3.00;;;1.33;;
35959;SDS011;22043;50.970;7.192;2022-09-28T14:27:22;7.20;;;2.70;;
35959;SDS011;22043;50.970;7.192;2022-09-28T14:32:38;5.85;;;1.52;;
35959;SDS011;22043;50.970;7.192;2022-09-28T14:35:05;1.85;;;1.10;;
35959;SDS011;22043;50.970;7.192;2022-09-28T14:37:40;2.75;;;1.10;;
35959;SDS011;22043;50.970;7.192;2022-09-28T14:56:32;2.30;;;1.20;;
35959;SDS011;22043;50.970;7.192;2022-09-28T14:59:15;3.35;;;1.23;;
35959;SDS011;22043;50.970;7.192;2022-09-28T15:01:48;2.90;;;0.95;;
35959;SDS011;22043;50.970;7.192;2022-09-28T15:04:20;2.97;;;1.42;;
35959;SDS011;22043;50.970;7.192;2022-09-28T15:06:50;4.15;;;2.08;;
35959;SDS011;22043;50.970;7.192;2022-09-28T15:09:49;4.68;;;1.80;;
35959;SDS011;22043;50.970;7.192;2022-09-28T15:12:13;3.20;;;1.40;;
35959;SDS011;22043;50.970;7.192;2022-09-28T15:14:58;3.38;;;1.33;;
35959;SDS011;22043;50.970;7.192;2022-09-28T15:17:30;2.38;;;1.20;;
35959;SDS011;22043;50.970;7.192;2022-09-28T15:22:49;3.53;;;1.80;;
35959;SDS011;22043;50.970;7.192;2022-09-28T15:25:21;9.25;;;2.28;;
35959;SDS011;22043;50.970;7.192;2022-09-28T15:27:56;7.47;;;2.25;;
35959;SDS011;22043;50.970;7.192;2022-09-28T15:32:58;8.88;;;2.10;;
35959;SDS011;22043;50.970;7.192;2022-09-28T15:35:45;4.18;;;1.83;;
35959;SDS011;22043;50.970;7.192;2022-09-28T15:38:17;3.80;;;1.30;;
35959;SDS011;22043;50.970;7.192;2022-09-28T15:40:44;3.20;;;0.98;;
35959;SDS011;22043;50.970;7.192;2022-09-28T15:43:32;5.15;;;2.00;;
35959;SDS011;22043;50.970;7.192;2022-09-28T15:46:12;18.20;;;9.55;;
35959;SDS011;22043;50.970;7.192;2022-09-28T15:48:52;5.80;;;2.72;;
35959;SDS011;22043;50.970;7.192;2022-09-28T15:51:21;3.58;;;1.45;;
35959;SDS011;22043;50.970;7.192;2022-09-28T15:56:16;3.42;;;1.45;;
35959;SDS011;22043;50.970;7.192;2022-09-28T15:58:42;3.72;;;1.65;;
35959;SDS011;22043;50.970;7.192;2022-09-28T16:01:27;3.65;;;1.52;;
35959;SDS011;22043;50.970;7.192;2022-09-28T16:07:17;7.35;;;2.50;;
35959;SDS011;22043;50.970;7.192;2022-09-28T16:12:42;3.83;;;2.22;;
35959;SDS011;22043;50.970;7.192;2022-09-28T16:15:20;4.50;;;2.53;;
35959;SDS011;22043;50.970;7.192;2022-09-28T16:18:13;3.78;;;1.90;;
35959;SDS011;22043;50.970;7.192;2022-09-28T16:20:46;4.75;;;1.90;;
35959;SDS011;22043;50.970;7.192;2022-09-28T16:23:18;4.70;;;2.53;;
35959;SDS011;22043;50.970;7.192;2022-09-28T16:25:57;4.55;;;2.28;;
35959;SDS011;22043;50.970;7.192;2022-09-28T16:36:27;6.75;;;3.45;;
35959;SDS011;22043;50.970;7.192;2022-09-28T16:39:02;7.43;;;4.70;;
35959;SDS011;22043;50.970;7.192;2022-09-28T16:41:28;6.30;;;3.90;;
35959;SDS011;22043;50.970;7.192;2022-09-28T16:43:56;7.45;;;4.70;;
35959;SDS011;22043;50.970;7.192;2022-09-28T16:46:32;6.43;;;4.40;;
35959;SDS011;22043;50.970;7.192;2022-09-28T16:49:03;7.93;;;3.83;;
35959;SDS011;22043;50.970;7.192;2022-09-28T16:51:31;6.65;;;2.20;;
35959;SDS011;22043;50.970;7.192;2022-09-28T16:57:14;7.25;;;2.92;;
35959;SDS011;22043;50.970;7.192;2022-09-28T16:59:40;3.75;;;1.83;;
35959;SDS011;22043;50.970;7.192;2022-09-28T17:02:18;4.97;;;1.98;;
35959;SDS011;22043;50.970;7.192;2022-09-28T17:04:49;2.58;;;0.95;;
35959;SDS011;22043;50.970;7.192;2022-09-28T17:07:15;2.63;;;0.90;;
35959;SDS011;22043;50.970;7.192;2022-09-28T17:09:44;3.08;;;1.60;;
35959;SDS011;22043;50.970;7.192;2022-09-28T17:12:17;7.82;;;3.80;;
35959;SDS011;22043;50.970;7.192;2022-09-28T17:14:46;2.25;;;1.05;;
35959;SDS011;22043;50.970;7.192;2022-09-28T17:17:12;2.88;;;1.10;;
35959;SDS011;22043;50.970;7.192;2022-09-28T17:19:38;3.53;;;1.67;;
35959;SDS011;22043;50.970;7.192;2022-09-28T17:22:04;2.80;;;1.40;;
35959;SDS011;22043;50.970;7.192;2022-09-28T17:24:31;3.58;;;1.50;;
35959;SDS011;22043;50.970;7.192;2022-09-28T17:26:57;2.78;;;1.33;;
35959;SDS011;22043;50.970;7.192;2022-09-28T17:29:25;3.93;;;1.90;;
35959;SDS011;22043;50.970;7.192;2022-09-28T17:31:52;12.10;;;6.38;;
35959;SDS011;22043;50.970;7.192;2022-09-28T17:34:19;4.13;;;1.77;;
35959;SDS011;22043;50.970;7.192;2022-09-28T17:36:44;5.47;;;1.50;;
35959;SDS011;22043;50.970;7.192;2022-09-28T17:39:11;3.47;;;1.60;;
35959;SDS011;22043;50.970;7.192;2022-09-28T17:41:38;4.05;;;1.48;;
35959;SDS011;22043;50.970;7.192;2022-09-28T17:44:04;2.67;;;1.50;;
35959;SDS011;22043;50.970;7.192;2022-09-28T17:46:37;4.30;;;1.42;;
35959;SDS011;22043;50.970;7.192;2022-09-28T17:49:09;6.10;;;5.07;;
35959;SDS011;22043;50.970;7.192;2022-09-28T17:51:36;2.05;;;1.25;;
35959;SDS011;22043;50.970;7.192;2022-09-28T17:54:03;2.83;;;1.10;;
35959;SDS011;22043;50.970;7.192;2022-09-28T17:56:30;2.00;;;1.20;;
35959;SDS011;22043;50.970;7.192;2022-09-28T17:58:57;3.70;;;2.22;;
35959;SDS011;22043;50.970;7.192;2022-09-28T18:01:25;2.83;;;1.55;;
35959;SDS011;22043;50.970;7.192;2022-09-28T18:03:53;7.75;;;3.35;;
35959;SDS011;22043;50.970;7.192;2022-09-28T18:06:20;5.75;;;3.45;;
35959;SDS011;22043;50.970;7.192;2022-09-28T18:08:47;10.65;;;6.22;;
35959;SDS011;22043;50.970;7.192;2022-09-28T18:11:13;17.33;;;10.50;;
35959;SDS011;22043;50.970;7.192;2022-09-28T18:13:41;8.10;;;5.32;;
35959;SDS011;22043;50.970;7.192;2022-09-28T18:16:09;4.80;;;2.60;;
35959;SDS011;22043;50.970;7.192;2022-09-28T18:18:36;2.65;;;1.77;;
35959;SDS011;22043;50.970;7.192;2022-09-28T18:21:06;3.20;;;2.00;;
35959;SDS011;22043;50.970;7.192;2022-09-28T18:23:36;6.28;;;2.50;;
35959;SDS011;22043;50.970;7.192;2022-09-28T18:26:03;13.10;;;7.50;;
35959;SDS011;22043;50.970;7.192;2022-09-28T18:28:34;12.13;;;7.22;;
35959;SDS011;22043;50.970;7.192;2022-09-28T18:30:59;10.70;;;6.53;;
35959;SDS011;22043;50.970;7.192;2022-09-28T18:33:34;12.98;;;8.30;;
35959;SDS011;22043;50.970;7.192;2022-09-28T18:36:00;17.55;;;10.40;;
35959;SDS011;22043;50.970;7.192;2022-09-28T18:38:26;14.52;;;8.23;;
35959;SDS011;22043;50.970;7.192;2022-09-28T18:40:52;7.78;;;5.32;;
35959;SDS011;22043;50.970;7.192;2022-09-28T18:43:19;4.80;;;3.63;;
35959;SDS011;22043;50.970;7.192;2022-09-28T18:45:47;4.68;;;2.45;;